Flight Track Log - Related Links

Times and Time Zones

All times are in EDT time to prevent confusion due to time zone crossing. See the UAL590 flight status page for this flight to view local times or setup timezone preferences in your user account.

Time Position Orientation Groundspeed Altitude Reporting Facility
EDT Latitude Longitude Course Direction KTS MPH feet Rate Location/Type
Sat 02:40:32 PM 42.0166 -87.6668 263° West  Level FlightAware Approximate
Sat 02:40:49 PM 42.0000 -87.8500 80° East 162 186 2,500  Level Chicago TRACON
Sat 02:45:41 PM 42.0642 -87.3444 77° East 329 379 14,600 2,635 Climbing Chicago Center
Sat 02:46:42 PM 42.0906 -87.1953 78° East 359 413 18,000 2,876 Climbing Chicago Center
Sat 02:47:42 PM 42.1128 -87.0575 86° East 359 413 20,400 1,765 Climbing Chicago Center
Sat 02:48:41 PM 42.1203 -86.9058 87° East 377 434 21,500 1,462 Climbing Chicago Center
Sat 02:49:41 PM 42.1269 -86.7433 88° East 413 475 23,300 1,850 Climbing Chicago Center
Sat 02:50:41 PM 42.1314 -86.5722 86° East 442 509 25,200 1,785 Climbing Chicago Center
Sat 02:51:42 PM 42.1397 -86.4011 88° East 455 524 26,900 1,700 Climbing Chicago Center
Sat 02:52:41 PM 42.1433 -86.2272 88° East 460 529 28,600 1,664 Climbing Chicago Center
Sat 02:53:41 PM 42.1472 -86.0675 92° East 460 529 30,200 1,600 Climbing Chicago Center
Sat 02:54:41 PM 42.1422 -85.8969 90° East 460 529 31,800 1,850 Climbing Chicago Center
Sat 02:55:41 PM 42.1411 -85.7261 91° East 460 529 33,900 1,600 Climbing Chicago Center
Sat 02:56:41 PM 42.1397 -85.5525 90° East 460 529 35,000 1,130 Climbing Chicago Center
Sat 02:58:15 PM 42.1397 -85.2631 92° East 488 562 36,800 779 Climbing Cleveland Center
Sat 02:59:15 PM 42.1361 -85.0919 91° East 469 540 37,000 100 Climbing Cleveland Center
Sat 03:00:15 PM 42.1342 -84.9236 91° East 456 525 37,000  Level Cleveland Center
Sat 03:01:15 PM 42.1322 -84.7528 84° East 456 525 37,000  Level Cleveland Center
Sat 03:02:15 PM 42.1447 -84.5797 84° East 451 519 37,000  Level Cleveland Center
Sat 03:03:15 PM 42.1589 -84.4097 85° East 456 525 37,000  Level Cleveland Center
Sat 03:04:15 PM 42.1708 -84.2367 84° East 463 533 37,000 -50 Level Cleveland Center
Sat 03:05:15 PM 42.1844 -84.0664 83° East 457 526 36,900 -50 Descending Cleveland Center
Sat 03:06:15 PM 42.2000 -83.8936 85° East 457 526 36,900  Level Cleveland Center
Sat 03:07:15 PM 42.2103 -83.7456 84° East 457 526 36,900 50 Level Cleveland Center
Sat 03:08:15 PM 42.2258 -83.5556 84° East 457 526 37,000 50 Climbing Cleveland Center
Sat 03:09:15 PM 42.2383 -83.3878 85° East 463 533 37,000  Level Cleveland Center
Sat 03:10:15 PM 42.2508 -83.2089 84° East 466 536 37,000  Level Cleveland Center
Sat 03:11:15 PM 42.2653 -83.0356 85° East 466 536 37,000  Level Cleveland Center
Sat 03:12:15 PM 42.2769 -82.8647 85° East 459 528 37,000  Level Cleveland Center
Sat 03:13:15 PM 42.2886 -82.6911 84° East 459 528 37,000 -50 Level Cleveland Center
Sat 03:14:15 PM 42.2997 -82.5397 85° East 459 528 36,900 -50 Descending Cleveland Center
Sat 03:15:15 PM 42.3108 -82.3717 86° East 459 528 36,900 -200 Level Cleveland Center
Sat 03:16:15 PM 42.3197 -82.2006 83° East 454 522 36,500 -700 Descending Cleveland Center
Sat 03:17:15 PM 42.3367 -82.0158 86° East 454 522 35,500 -750 Descending Cleveland Center
Sat 03:18:15 PM 42.3450 -81.8417 85° East 462 532 35,000 -500 Descending Cleveland Center
Sat 03:19:15 PM 42.3572 -81.6678 86° East 462 532 34,500 -750 Descending Cleveland Center
Sat 03:20:15 PM 42.3669 -81.4908 86° East 462 532 33,500 -750 Descending Cleveland Center
Sat 03:21:15 PM 42.3767 -81.3139 85° East 457 526 33,000 -250 Descending Cleveland Center
Sat 03:22:15 PM 42.3881 -81.1397 86° East 464 534 33,000  Level Cleveland Center
Sat 03:23:15 PM 42.3969 -80.9656 87° East 464 534 33,000  Level Cleveland Center
Sat 03:24:15 PM 42.4036 -80.8081 85° East 464 534 33,000  Level Cleveland Center
Sat 03:25:16 PM 42.4144 -80.6281 85° East 464 534 33,000  Level Cleveland Center
Sat 03:26:15 PM 42.4247 -80.4511 86° East 464 534 33,000  Level Cleveland Center
Sat 03:27:15 PM 42.4328 -80.2736 87° East 464 534 33,000  Level Cleveland Center
Sat 03:28:15 PM 42.4406 -80.0964 86° East 469 540 33,000  Level Cleveland Center
Sat 03:29:15 PM 42.4500 -79.9164 87° East 469 540 33,000  Level Cleveland Center
Sat 03:30:15 PM 42.4572 -79.7361 86° East 475 547 33,000 50 Level Cleveland Center
Sat 03:31:15 PM 42.4661 -79.5503 87° East 493 567 33,100  Climbing Cleveland Center
Sat 03:32:15 PM 42.4725 -79.3475 87° East 498 573 33,000 -50 Descending Cleveland Center
Sat 03:33:15 PM 42.4786 -79.1672 87° East 482 555 33,000  Level Cleveland Center
Sat 03:34:15 PM 42.4867 -78.9839 87° East 481 554 33,000  Level Cleveland Center
Sat 03:35:15 PM 42.4928 -78.8375 88° East 486 559 33,000  Level Cleveland Center
Sat 03:36:15 PM 42.4981 -78.6344 86° East 486 559 33,000 50 Level Cleveland Center
Sat 03:37:15 PM 42.5072 -78.4483 88° East 487 560 33,100  Climbing Cleveland Center
Sat 03:38:15 PM 42.5122 -78.2706 87° East 482 555 33,000 -50 Descending Cleveland Center
Sat 03:39:15 PM 42.5189 -78.0928 88° East 477 549 33,000  Level Cleveland Center
Sat 03:40:15 PM 42.5231 -77.9067 89° East 477 549 33,000  Level Cleveland Center
Sat 03:41:15 PM 42.5250 -77.7264 87° East 476 548 33,000  Level Cleveland Center
Sat 03:42:15 PM 42.5308 -77.5458 88° East 476 548 33,000  Level Cleveland Center
Sat 03:44:08 PM 42.5381 -77.2058 88° East 475 547 33,000  Level Boston Center
Sat 03:45:08 PM 42.5433 -77.0231 89° East 475 547 33,000  Level Boston Center
Sat 03:46:08 PM 42.5444 -76.8425 88° East 475 547 33,000  Level Boston Center
Sat 03:47:08 PM 42.5492 -76.6569 89° East 480 552 33,000  Level Boston Center
Sat 03:48:08 PM 42.5517 -76.4739 89° East 480 552 33,000 -450 Level Boston Center
Sat 03:49:08 PM 42.5539 -76.2933 88° East 475 547 32,100 -950 Descending Boston Center
Sat 03:50:08 PM 42.5581 -76.1075 90° East 480 552 31,100 -1,000 Descending Boston Center
Sat 03:51:08 PM 42.5575 -75.9272 99° East 480 552 30,100 -1,100 Descending Boston Center
Sat 03:52:08 PM 42.5342 -75.7256 101° East 485 558 28,900 -1,100 Descending Boston Center
Sat 03:53:08 PM 42.5100 -75.5497 101° East 485 558 27,900 -1,000 Descending Boston Center
Sat 03:54:08 PM 42.4856 -75.3739 98° East 474 545 26,900 -950 Descending Boston Center
Sat 03:55:08 PM 42.4669 -75.2014 88° East 469 540 26,000 -950 Descending Boston Center
Sat 03:56:08 PM 42.4708 -75.0297 89° East 469 540 25,000 -1,000 Descending Boston Center
Sat 03:57:08 PM 42.4725 -74.8608 87° East 458 527 24,000 -1,000 Descending Boston Center
Sat 03:58:08 PM 42.4781 -74.6978 88° East 448 516 23,000 -1,000 Descending Boston Center
Sat 03:59:08 PM 42.4811 -74.5375 90° East 435 501 22,000 -1,000 Descending Boston Center
Sat 04:00:08 PM 42.4819 -74.3714 89° East 435 501 21,000 -1,000 Descending Boston Center
Sat 04:01:08 PM 42.4844 -74.2108 100° East 435 501 20,000 -1,150 Descending Boston Center
Sat 04:02:08 PM 42.4639 -74.0528 105° East 430 495 18,700 -1,200 Descending Boston Center
Sat 04:03:08 PM 42.4367 -73.9169 105° East 417 480 17,600 -1,250 Descending Boston Center
Sat 04:04:08 PM 42.4053 -73.7589 105° East 406 467 16,200 -1,300 Descending Boston Center
Sat 04:05:08 PM 42.3794 -73.6317 105° East 401 461 15,000 -1,300 Descending Boston Center
Sat 04:06:08 PM 42.3478 -73.4767 105° East 395 455 13,600 -1,300 Descending Boston Center
Sat 04:07:08 PM 42.3197 -73.3331 105° East 390 449 12,400 -1,300 Descending Boston Center
Sat 04:08:08 PM 42.2936 -73.2008 96° East 377 434 11,000 -1,100 Descending Boston Center
Sat 04:09:08 PM 42.2839 -73.0772 88° East 358 412 10,200 -1,100 Descending Boston Center
Sat 04:10:08 PM 42.2867 -72.9536 87° East 327 376 8,800 -1,450 Descending Boston Center
Sat 04:11:08 PM 42.2914 -72.8386 108° East 314 361 7,300 -1,467 Descending Boston Center
Sat 04:12:23 PM 42.2606 -72.7094 138° Southeast 296 341 5,500 -1,050 Descending Boston Center
Sat 04:13:08 PM 42.2231 -72.6644 146° Southeast 273 314 5,200 -776 Descending Boston Center
Sat 04:14:19 PM 42.1586 -72.6053 142° Southeast 209 241 4,000 -1,050 Descending Boston Center
Sat 04:15:08 PM 42.1272 -72.5717 157° South 214 246 3,100 -826 Descending Boston Center
Sat 04:16:08 PM 42.0731 -72.5408 196° South 203 234 2,500 -396 Descending Boston Center
Sat 04:16:39 PM 42.0439 -72.5519 223° Southwest 195 224 2,500 -456 Level Boston Center
Sat 04:17:27 PM 42.0147 -72.5881 223° Southwest 177 204 1,900 -750 Descending Boston Center

Login

Don't have an account? Register now (free) for customized features, flight alerts, and more!